CheckWX is a tool to help pilots better visualize weather data.  It is not intended as a substitute for an official pre-flight weather briefing.

18:40:11 UTC

KCUL METAR
Carmi Municipal Airport
Carmi, Illinois, USA
Current

23 mins ago

KCUL 171817Z AUTO 28008KT 10SM OVC011 04/02 A2977 RMK AO2
Observed
Feb-17 @ 18:17 UTC
Wind
  • 280° at 8 KTS
Visibility
10 SM
Flight Rules
MVFR
Cloud Levels
  • Overcast at 1,100' AGL
Temperature
C / 39°F
Dewpoint
C / 36°F
Humidity
87%
Altimeter
29.77" Hg
Pressure
1008.12 hPa
Previous

42 mins ago

KCUL 171758Z AUTO 27009KT 10SM OVC009 04/02 A2978 RMK AO2
Observed
Feb-17 @ 17:58 UTC
Wind
  • 270° at 9 KTS
Visibility
10 SM
Flight Rules
IFR
Cloud Levels
  • Overcast at 900' AGL
Temperature
C / 39°F
Dewpoint
C / 36°F
Humidity
87%
Altimeter
29.78" Hg
Pressure
1008.42 hPa
Previous

1 hour ago

KCUL 171737Z AUTO 26008KT 7SM OVC007 03/03 A2979 RMK AO2
Observed
Feb-17 @ 17:37 UTC
Wind
  • 260° at 8 KTS
Visibility
7 SM
Flight Rules
IFR
Cloud Levels
  • Overcast at 700' AGL
Temperature
C / 37°F
Dewpoint
C / 37°F
Humidity
100%
Altimeter
29.79" Hg
Pressure
1008.82 hPa